createdAt,value
2022-12-18T00:01:49.537Z,46.88
2022-12-18T00:06:51.580Z,38.90
2022-12-18T00:11:53.053Z,42.67
2022-12-18T00:16:54.606Z,41.30
2022-12-18T00:21:56.050Z,43.05
2022-12-18T00:26:57.514Z,45.78
2022-12-18T00:31:58.959Z,42.30
2022-12-18T00:37:00.461Z,34.58
2022-12-18T00:42:20.528Z,38.78
2022-12-18T00:47:21.975Z,41.15
2022-12-18T00:52:23.418Z,37.90
2022-12-18T00:57:24.849Z,39.47
2022-12-18T01:02:26.449Z,43.55
2022-12-18T01:07:27.958Z,36.92
2022-12-18T01:12:29.386Z,35.90
2022-12-18T01:17:30.802Z,35.97
2022-12-18T01:22:32.264Z,33.95
2022-12-18T01:27:34.947Z,42.10
2022-12-18T01:32:36.353Z,39.65
2022-12-18T01:37:37.809Z,36.65
2022-12-18T01:42:39.211Z,40.85
2022-12-18T01:47:50.574Z,35.42
2022-12-18T01:52:56.403Z,38.85
2022-12-18T01:58:00.462Z,42.22
2022-12-18T02:03:02.047Z,36.85
2022-12-18T02:08:42.042Z,35.33
2022-12-18T02:14:05.597Z,36.70
2022-12-18T02:19:21.388Z,35.40
2022-12-18T02:24:44.649Z,33.40
2022-12-18T02:29:58.325Z,33.97
2022-12-18T02:35:03.276Z,39.45
2022-12-18T02:40:06.515Z,37.95
2022-12-18T02:45:08.317Z,37.47
2022-12-18T02:50:15.668Z,31.35
2022-12-18T02:55:40.049Z,35.03
2022-12-18T03:00:44.158Z,37.75
2022-12-18T03:05:54.259Z,37.58
2022-12-18T03:11:03.142Z,32.03
2022-12-18T03:16:08.486Z,32.23
2022-12-18T03:21:12.572Z,35.47
2022-12-18T03:26:18.439Z,33.25
2022-12-18T03:31:23.733Z,37.53
2022-12-18T03:36:25.685Z,42.30
2022-12-18T03:41:32.510Z,35.83
2022-12-18T03:46:45.559Z,33.40
2022-12-18T03:52:08.040Z,37.97
2022-12-18T03:57:24.358Z,37.63
2022-12-18T04:02:26.358Z,37.30
2022-12-18T04:07:28.587Z,32.30
2022-12-18T04:12:31.041Z,39.67
2022-12-18T04:17:32.619Z,35.17
2022-12-18T04:22:34.015Z,40.55
2022-12-18T04:27:35.711Z,34.72
2022-12-18T04:32:37.338Z,33.45
2022-12-18T04:37:38.829Z,37.20
2022-12-18T04:42:41.452Z,38.13
2022-12-18T04:47:42.932Z,38.45
2022-12-18T04:52:44.376Z,37.20
2022-12-18T04:57:46.868Z,36.70
2022-12-18T05:02:48.510Z,34.67
2022-12-18T05:07:50.105Z,37.65
2022-12-18T05:13:01.164Z,30.40
2022-12-18T05:18:04.676Z,37.50
2022-12-18T05:23:06.078Z,32.20
2022-12-18T05:28:07.503Z,31.23
2022-12-18T05:33:08.909Z,34.58
2022-12-18T05:38:10.553Z,34.75
2022-12-18T05:43:14.281Z,36.63
2022-12-18T05:48:20.150Z,38.08
2022-12-18T05:53:21.816Z,39.85
2022-12-18T05:58:23.282Z,37.60
2022-12-18T06:03:29.275Z,41.45
2022-12-18T06:08:33.677Z,47.53
2022-12-18T06:13:35.144Z,53.42
2022-12-18T06:18:39.668Z,45.03
2022-12-18T06:23:41.411Z,46.00
2022-12-18T06:28:43.163Z,44.63
2022-12-18T06:33:44.579Z,48.50
2022-12-18T06:38:45.994Z,50.78
2022-12-18T06:43:47.570Z,51.55
2022-12-18T06:48:51.039Z,62.55
2022-12-18T06:53:52.558Z,51.13
2022-12-18T06:58:54.017Z,53.08
2022-12-18T07:03:56.869Z,54.75
2022-12-18T07:08:58.324Z,53.75
2022-12-18T07:13:59.957Z,61.63
2022-12-18T07:19:01.372Z,51.47
2022-12-18T07:24:02.841Z,60.50
2022-12-18T07:29:04.272Z,53.30
2022-12-18T07:34:05.710Z,53.45
2022-12-18T07:39:07.904Z,60.08
2022-12-18T07:44:11.603Z,56.28
2022-12-18T07:49:13.023Z,54.92
2022-12-18T07:54:14.572Z,43.60
2022-12-18T07:59:16.020Z,42.42
2022-12-18T08:04:17.737Z,37.72
2022-12-18T08:09:19.385Z,39.80
2022-12-18T08:14:20.800Z,40.42
2022-12-18T08:19:22.267Z,42.38
2022-12-18T08:24:23.729Z,39.53
2022-12-18T08:29:25.139Z,39.90
2022-12-18T08:34:26.606Z,41.95
2022-12-18T08:39:28.111Z,44.25
2022-12-18T08:44:38.532Z,58.30
2022-12-18T08:49:39.983Z,45.55
2022-12-18T08:54:41.417Z,41.25
2022-12-18T08:59:42.908Z,46.78
2022-12-18T09:04:46.398Z,46.33
2022-12-18T09:09:48.336Z,44.63
2022-12-18T09:14:49.752Z,39.65
2022-12-18T09:19:51.588Z,39.67
2022-12-18T09:24:53.008Z,38.95
2022-12-18T09:29:54.414Z,37.42
2022-12-18T09:34:55.862Z,46.10
2022-12-18T09:39:57.264Z,39.35
2022-12-18T09:45:00.367Z,44.55
2022-12-18T09:50:18.463Z,46.55
2022-12-18T09:55:37.267Z,50.45
2022-12-18T10:00:39.352Z,45.50
2022-12-18T10:05:46.820Z,45.90
2022-12-18T10:10:54.196Z,46.45
2022-12-18T10:16:08.769Z,42.67
2022-12-18T10:21:19.425Z,43.63
2022-12-18T10:26:21.060Z,42.08
2022-12-18T10:31:25.580Z,50.58
2022-12-18T10:36:27.253Z,46.88
2022-12-18T10:41:29.415Z,46.75
2022-12-18T10:46:31.277Z,51.05
2022-12-18T10:51:36.223Z,49.05
2022-12-18T10:56:38.960Z,51.17
2022-12-18T11:01:58.362Z,53.92
2022-12-18T11:07:08.907Z,59.10
2022-12-18T11:12:18.721Z,62.22
2022-12-18T11:17:26.169Z,50.83
2022-12-18T11:22:32.425Z,53.90
2022-12-18T11:27:34.248Z,54.45
2022-12-18T11:32:39.483Z,43.25
2022-12-18T11:37:44.598Z,42.75
2022-12-18T11:42:54.796Z,40.90
2022-12-18T11:48:31.362Z,49.72
2022-12-18T11:53:32.888Z,40.33
2022-12-18T11:58:46.621Z,44.00
2022-12-18T12:04:23.388Z,49.53
2022-12-18T12:09:48.467Z,50.38
2022-12-18T12:15:14.102Z,57.97
2022-12-18T12:20:43.096Z,56.08
2022-12-18T12:25:47.458Z,52.67
2022-12-18T12:31:01.035Z,55.85
2022-12-18T12:36:12.262Z,55.28
2022-12-18T12:41:36.853Z,50.55
2022-12-18T12:46:42.673Z,52.38
2022-12-18T12:52:05.305Z,56.83
2022-12-18T12:57:23.665Z,54.85
2022-12-18T13:02:49.949Z,52.33
2022-12-18T13:08:00.233Z,69.25
2022-12-18T13:13:17.112Z,71.40
2022-12-18T13:18:26.379Z,85.80
2022-12-18T13:23:34.660Z,59.47
2022-12-18T13:28:47.944Z,62.72
2022-12-18T13:39:23.840Z,63.63
2022-12-18T13:44:30.278Z,70.93
2022-12-18T13:49:44.180Z,61.00
2022-12-18T13:54:51.591Z,53.47
2022-12-18T13:59:53.742Z,69.05
2022-12-18T14:04:55.420Z,65.22
2022-12-18T14:15:28.049Z,63.03
2022-12-18T14:20:32.726Z,59.72
2022-12-18T14:25:34.171Z,60.42
2022-12-18T14:30:44.629Z,60.95
2022-12-18T14:35:58.580Z,65.47
2022-12-18T14:41:07.696Z,65.00
2022-12-18T14:46:36.067Z,52.40
2022-12-18T14:51:37.595Z,59.78
2022-12-18T14:56:46.790Z,61.42
2022-12-18T15:01:52.488Z,64.27
2022-12-18T15:07:08.727Z,57.13
2022-12-18T15:12:34.627Z,59.85
2022-12-18T15:17:36.094Z,61.28
2022-12-18T15:22:37.896Z,64.43
2022-12-18T15:27:39.681Z,60.92
2022-12-18T15:32:41.261Z,61.78
2022-12-18T15:37:43.592Z,61.30
2022-12-18T15:43:04.521Z,72.28
2022-12-18T15:48:21.049Z,60.88
2022-12-18T15:53:22.815Z,68.72
2022-12-18T15:58:24.239Z,76.15
2022-12-18T16:03:25.754Z,72.00
2022-12-18T16:08:27.747Z,82.88
2022-12-18T16:13:29.310Z,83.88
2022-12-18T16:18:30.737Z,102.30
2022-12-18T16:23:32.207Z,86.53
2022-12-18T16:28:33.627Z,85.60
2022-12-18T16:33:35.054Z,90.85
2022-12-18T16:38:36.536Z,83.97
2022-12-18T16:43:38.183Z,81.28
2022-12-18T16:48:39.846Z,93.15
2022-12-18T16:53:41.691Z,88.03
2022-12-18T16:58:43.363Z,85.55
2022-12-18T17:03:52.217Z,171.68
2022-12-18T17:09:15.429Z,127.95
2022-12-18T17:14:19.998Z,94.65
2022-12-18T17:19:21.887Z,106.03
2022-12-18T17:24:23.482Z,119.20
2022-12-18T17:29:24.926Z,92.93
2022-12-18T17:34:26.631Z,81.95
2022-12-18T17:39:28.748Z,80.82
2022-12-18T17:44:30.211Z,118.20
2022-12-18T17:49:31.805Z,102.03
2022-12-18T17:54:33.291Z,75.57
2022-12-18T17:59:34.820Z,93.15
2022-12-18T18:04:36.265Z,93.32
2022-12-18T18:09:38.011Z,86.30
2022-12-18T18:14:39.466Z,84.93
2022-12-18T18:19:42.118Z,104.28
2022-12-18T18:24:45.083Z,216.07
2022-12-18T18:29:46.543Z,170.23
2022-12-18T18:34:48.000Z,137.60
2022-12-18T18:39:49.431Z,145.40
2022-12-18T18:44:50.876Z,194.15
2022-12-18T18:49:52.297Z,122.72
2022-12-18T18:55:12.109Z,111.88
2022-12-18T19:00:15.450Z,139.55
2022-12-18T19:05:17.218Z,134.80
2022-12-18T19:10:18.631Z,149.68
2022-12-18T19:15:20.211Z,116.05
2022-12-18T19:20:21.744Z,109.63
2022-12-18T19:25:29.953Z,104.93
2022-12-18T19:30:41.495Z,102.95
2022-12-18T19:35:42.941Z,113.35
2022-12-18T19:40:45.297Z,116.30
2022-12-18T19:45:46.812Z,120.00
2022-12-18T19:50:48.251Z,111.25
2022-12-18T19:55:49.832Z,109.28
2022-12-18T20:00:51.734Z,110.38
2022-12-18T20:05:53.225Z,112.97
2022-12-18T20:10:54.695Z,96.95
2022-12-18T20:15:56.109Z,109.57
2022-12-18T20:20:57.526Z,117.13
2022-12-18T20:26:01.947Z,107.68
2022-12-18T20:31:06.419Z,110.25
2022-12-18T20:36:12.361Z,110.57
2022-12-18T20:41:20.745Z,103.40
2022-12-18T20:46:22.545Z,113.10
2022-12-18T20:51:24.100Z,116.05
2022-12-18T20:56:26.964Z,161.88
2022-12-18T21:01:29.676Z,111.95
2022-12-18T21:06:31.597Z,116.05
2022-12-18T21:11:52.461Z,118.70
2022-12-18T21:16:54.561Z,115.80
2022-12-18T21:21:56.863Z,177.50
2022-12-18T21:27:01.844Z,157.55
2022-12-18T21:32:04.179Z,156.85
2022-12-18T21:37:05.745Z,118.50
2022-12-18T21:42:25.564Z,152.23
2022-12-18T21:47:27.037Z,118.43
2022-12-18T21:52:32.079Z,131.35
2022-12-18T21:57:34.260Z,115.53
2022-12-18T22:02:35.902Z,125.45
2022-12-18T22:07:37.437Z,115.05
2022-12-18T22:12:43.751Z,111.45
2022-12-18T22:17:46.114Z,107.63
2022-12-18T22:22:48.676Z,127.10
2022-12-18T22:28:08.634Z,123.03
2022-12-18T22:33:10.339Z,114.93
2022-12-18T22:38:11.820Z,115.63
2022-12-18T22:43:13.244Z,135.43
2022-12-18T22:48:14.891Z,141.07
2022-12-18T22:53:17.887Z,136.98
2022-12-18T22:58:19.288Z,128.05
2022-12-18T23:03:20.887Z,126.68
2022-12-18T23:08:22.318Z,126.05
2022-12-18T23:13:24.020Z,137.07
2022-12-18T23:18:25.587Z,132.35
2022-12-18T23:23:27.016Z,123.35
2022-12-18T23:28:28.598Z,138.82
2022-12-18T23:33:31.762Z,143.73
2022-12-18T23:38:34.441Z,135.50
2022-12-18T23:43:36.484Z,141.63
2022-12-18T23:48:38.742Z,140.98
2022-12-18T23:53:41.192Z,141.13
2022-12-18T23:58:43.390Z,145.98
